Time;durP1;ratioP1;P1;durP2;ratioP2;P2;SDS_P1;SDS_P2;PMS_P1;PMS_P2;Temp;Humidity;BMP_temperature;BMP_pressure;BME280_temperature;BME280_humidity;BME280_pressure;Samples;Min_cycle;Max_cycle;Signal;HPM_P1;HPM_P2
2022/07/29 00:00:58;;;;;;;2.00;1.25;;;;;;;;;;4994767;28;20054;-65
2022/07/29 00:03:24;;;;;;;4.35;1.08;;;;;;;;;;4994275;28;20096;-65
2022/07/29 00:05:52;;;;;;;1.48;0.90;;;;;;;;;;4994895;28;20130;-65
2022/07/29 00:08:19;;;;;;;2.30;1.35;;;;;;;;;;4994938;28;20054;-65
2022/07/29 00:10:45;;;;;;;5.78;1.10;;;;;;;;;;4994798;28;20381;-65
2022/07/29 00:13:11;;;;;;;3.97;1.25;;;;;;;;;;4994969;28;20042;-65
2022/07/29 00:15:37;;;;;;;3.22;1.10;;;;;;;;;;4994865;28;20038;-65
2022/07/29 00:18:03;;;;;;;3.35;1.27;;;;;;;;;;4994312;28;20078;-65
2022/07/29 00:20:29;;;;;;;5.55;1.60;;;;;;;;;;4994737;28;20038;-65
2022/07/29 00:22:55;;;;;;;4.80;1.13;;;;;;;;;;4994757;28;20124;-65
2022/07/29 00:25:22;;;;;;;3.15;1.33;;;;;;;;;;4994136;28;20082;-65
2022/07/29 00:27:48;;;;;;;2.67;1.20;;;;;;;;;;4994253;28;20050;-65
2022/07/29 00:30:14;;;;;;;2.67;1.30;;;;;;;;;;4994240;28;20046;-65
2022/07/29 00:32:40;;;;;;;3.65;1.30;;;;;;;;;;4992215;28;20041;-65
2022/07/29 00:37:52;;;;;;;4.50;1.75;;;;;;;;;;4993929;28;20061;-65
2022/07/29 00:40:18;;;;;;;3.13;1.30;;;;;;;;;;4993327;28;20212;-65
2022/07/29 00:42:45;;;;;;;3.03;1.35;;;;;;;;;;4993755;28;20120;-65
2022/07/29 00:45:11;;;;;;;2.13;1.50;;;;;;;;;;4993558;28;20086;-65
2022/07/29 00:47:38;;;;;;;2.10;1.33;;;;;;;;;;4992914;28;20050;-65
2022/07/29 00:50:04;;;;;;;2.40;1.42;;;;;;;;;;4993927;28;20042;-65
2022/07/29 00:52:30;;;;;;;3.28;1.38;;;;;;;;;;4994166;28;20550;-65
2022/07/29 00:54:57;;;;;;;4.38;1.40;;;;;;;;;;4993662;28;20042;-65
2022/07/29 00:57:23;;;;;;;2.78;1.40;;;;;;;;;;4993798;28;20121;-65
2022/07/29 00:59:49;;;;;;;5.30;1.92;;;;;;;;;;4993976;28;20505;-65
2022/07/29 01:02:15;;;;;;;4.57;1.58;;;;;;;;;;4993282;28;20046;-65
2022/07/29 01:04:41;;;;;;;2.65;1.40;;;;;;;;;;4993542;28;20042;-65
2022/07/29 01:07:07;;;;;;;3.13;1.20;;;;;;;;;;4993610;28;20046;-65
2022/07/29 01:09:34;;;;;;;3.83;1.35;;;;;;;;;;4993407;28;20449;-65
2022/07/29 01:12:00;;;;;;;3.58;2.03;;;;;;;;;;4993753;28;20385;-65
2022/07/29 01:14:27;;;;;;;4.93;1.58;;;;;;;;;;4993672;28;20034;-65
2022/07/29 01:16:57;;;;;;;2.17;1.30;;;;;;;;;;4993070;28;20121;-65
2022/07/29 01:19:42;;;;;;;2.00;1.40;;;;;;;;;;4993335;28;20044;-65
2022/07/29 01:22:20;;;;;;;6.70;1.52;;;;;;;;;;4993582;28;20042;-65
2022/07/29 01:24:49;;;;;;;4.32;1.30;;;;;;;;;;4993147;28;20046;-65
2022/07/29 01:27:29;;;;;;;2.40;1.40;;;;;;;;;;4992979;28;20045;-65
2022/07/29 01:30:00;;;;;;;3.22;1.40;;;;;;;;;;4993386;28;20078;-65
2022/07/29 01:32:31;;;;;;;3.40;1.65;;;;;;;;;;4992980;28;20589;-65
2022/07/29 01:35:03;;;;;;;4.13;1.50;;;;;;;;;;4993357;28;20109;-65
2022/07/29 01:37:37;;;;;;;3.10;1.52;;;;;;;;;;4993235;28;20485;-65
2022/07/29 01:40:04;;;;;;;3.70;1.50;;;;;;;;;;4992830;28;20045;-65
2022/07/29 01:42:39;;;;;;;3.00;1.30;;;;;;;;;;4993054;28;20053;-65
2022/07/29 01:45:23;;;;;;;3.22;1.40;;;;;;;;;;4992902;28;20473;-65
2022/07/29 01:47:52;;;;;;;2.97;1.30;;;;;;;;;;4992211;28;20050;-65
2022/07/29 01:50:19;;;;;;;4.53;1.38;;;;;;;;;;4993029;28;20042;-65
2022/07/29 01:52:50;;;;;;;3.10;1.10;;;;;;;;;;4992716;28;20042;-65
2022/07/29 01:55:17;;;;;;;5.60;1.67;;;;;;;;;;4992447;28;20034;-65
2022/07/29 01:57:44;;;;;;;4.97;1.83;;;;;;;;;;4992782;28;20050;-65
2022/07/29 02:00:11;;;;;;;1.92;1.20;;;;;;;;;;4992866;28;20078;-65
2022/07/29 02:02:38;;;;;;;3.95;1.42;;;;;;;;;;4992512;28;20471;-65
2022/07/29 02:05:06;;;;;;;4.05;1.20;;;;;;;;;;4992363;28;20049;-65
2022/07/29 02:07:33;;;;;;;3.58;1.60;;;;;;;;;;4992561;28;20045;-65
2022/07/29 02:10:00;;;;;;;3.45;1.40;;;;;;;;;;4992320;28;20053;-65
2022/07/29 02:12:28;;;;;;;2.20;1.40;;;;;;;;;;4992755;28;20182;-65
2022/07/29 02:14:55;;;;;;;2.60;1.10;;;;;;;;;;4992685;28;20042;-65
2022/07/29 02:17:25;;;;;;;5.05;1.27;;;;;;;;;;4992141;28;20481;-65
2022/07/29 02:19:53;;;;;;;3.53;1.25;;;;;;;;;;4992588;28;20042;-65
2022/07/29 02:22:19;;;;;;;3.50;1.08;;;;;;;;;;4992477;28;20050;-65
2022/07/29 02:24:46;;;;;;;6.47;1.60;;;;;;;;;;4992188;28;20125;-65
2022/07/29 02:27:13;;;;;;;1.95;1.10;;;;;;;;;;4992028;28;20046;-65
2022/07/29 02:29:40;;;;;;;1.88;1.00;;;;;;;;;;4992464;28;20544;-65
2022/07/29 02:32:07;;;;;;;4.38;1.30;;;;;;;;;;4991946;28;20082;-65
2022/07/29 02:34:34;;;;;;;3.53;1.55;;;;;;;;;;4992498;28;20672;-65
2022/07/29 02:37:00;;;;;;;2.90;1.27;;;;;;;;;;4992239;28;20373;-65
2022/07/29 02:39:27;;;;;;;2.60;1.65;;;;;;;;;;4991961;28;20081;-65
2022/07/29 02:42:04;;;;;;;3.60;1.27;;;;;;;;;;4992189;28;20083;-65
2022/07/29 02:44:32;;;;;;;2.60;1.30;;;;;;;;;;4992218;28;20050;-65
2022/07/29 02:47:01;;;;;;;2.55;1.15;;;;;;;;;;4991187;28;20137;-65
2022/07/29 02:49:33;;;;;;;5.25;1.55;;;;;;;;;;4992117;28;20073;-65
2022/07/29 02:51:59;;;;;;;;;;;;;;;;;;4992177;28;20038;-65
2022/07/29 02:54:38;;;;;;;3.67;1.45;;;;;;;;;;4991850;28;19972;-65
2022/07/29 02:57:06;;;;;;;3.35;1.48;;;;;;;;;;4994182;28;20069;-65
2022/07/29 02:59:34;;;;;;;4.43;1.70;;;;;;;;;;4996234;28;20053;-65
2022/07/29 03:02:01;;;;;;;5.88;1.40;;;;;;;;;;4995722;28;20125;-65
2022/07/29 03:04:29;;;;;;;4.55;1.50;;;;;;;;;;4996020;28;20093;-65
2022/07/29 03:06:55;;;;;;;2.58;1.38;;;;;;;;;;4995836;28;20125;-65
2022/07/29 03:09:22;;;;;;;7.60;1.50;;;;;;;;;;4995688;28;20042;-65
2022/07/29 03:11:48;;;;;;;6.55;1.40;;;;;;;;;;4995948;28;20384;-65
2022/07/29 03:14:16;;;;;;;3.53;1.25;;;;;;;;;;4978489;28;20046;-65
2022/07/29 03:16:42;;;;;;;1.85;1.17;;;;;;;;;;4978155;28;20085;-65
2022/07/29 03:19:08;;;;;;;4.78;1.65;;;;;;;;;;4995870;28;20053;-65
2022/07/29 03:21:34;;;;;;;2.15;1.17;;;;;;;;;;4995963;28;20077;-65
2022/07/29 03:24:00;;;;;;;3.03;1.25;;;;;;;;;;4995536;28;20101;-65
2022/07/29 03:26:26;;;;;;;2.78;1.58;;;;;;;;;;4995330;28;20078;-65
2022/07/29 03:28:52;;;;;;;4.35;1.30;;;;;;;;;;4995494;28;20145;-65
2022/07/29 03:31:18;;;;;;;4.38;1.58;;;;;;;;;;4995407;28;20629;-65
2022/07/29 03:33:45;;;;;;;4.75;1.20;;;;;;;;;;4995803;28;20046;-65
2022/07/29 03:36:11;;;;;;;3.85;1.55;;;;;;;;;;4995215;28;20121;-65
2022/07/29 03:38:37;;;;;;;3.50;1.40;;;;;;;;;;4994984;28;20046;-65
2022/07/29 03:41:06;;;;;;;2.40;1.30;;;;;;;;;;4995518;28;20046;-65
2022/07/29 03:43:34;;;;;;;7.30;1.63;;;;;;;;;;4976079;28;20045;-65
2022/07/29 03:46:02;;;;;;;6.38;1.70;;;;;;;;;;4975246;28;20388;-65
2022/07/29 03:48:29;;;;;;;4.70;1.23;;;;;;;;;;4975576;28;20059;-65
2022/07/29 03:50:55;;;;;;;8.43;1.35;;;;;;;;;;4975619;28;20043;-65
2022/07/29 03:53:22;;;;;;;2.70;1.05;;;;;;;;;;4975398;28;20074;-65
2022/07/29 03:55:51;;;;;;;6.20;1.40;;;;;;;;;;4975618;28;20672;-65
2022/07/29 03:58:19;;;;;;;1.35;1.25;;;;;;;;;;4975628;28;20055;-65
2022/07/29 04:00:45;;;;;;;3.53;1.50;;;;;;;;;;4975293;28;20042;-65
2022/07/29 04:03:11;;;;;;;4.63;1.30;;;;;;;;;;4975610;28;20101;-65
2022/07/29 04:05:37;;;;;;;5.60;1.50;;;;;;;;;;4975620;28;20047;-65
2022/07/29 04:08:04;;;;;;;5.30;1.60;;;;;;;;;;4973592;28;20086;-65
2022/07/29 04:10:29;;;;;;;2.20;1.52;;;;;;;;;;4975395;28;20073;-65
2022/07/29 04:12:56;;;;;;;3.60;1.25;;;;;;;;;;4975493;28;20762;-65
2022/07/29 04:15:22;;;;;;;3.33;1.50;;;;;;;;;;4974611;28;20042;-65
2022/07/29 04:17:48;;;;;;;5.43;1.60;;;;;;;;;;4975315;28;20466;-65
2022/07/29 04:20:14;;;;;;;4.93;1.40;;;;;;;;;;4975291;28;20626;-65
2022/07/29 04:22:43;;;;;;;3.10;1.40;;;;;;;;;;4974515;28;20057;-65
2022/07/29 04:25:09;;;;;;;2.83;1.48;;;;;;;;;;4958597;28;20055;-65
2022/07/29 04:27:35;;;;;;;2.63;1.35;;;;;;;;;;4994280;28;20049;-65
2022/07/29 04:30:02;;;;;;;3.83;1.40;;;;;;;;;;4993815;28;20100;-65
2022/07/29 04:32:28;;;;;;;4.55;1.70;;;;;;;;;;4994265;28;20054;-65
2022/07/29 04:34:54;;;;;;;5.63;1.52;;;;;;;;;;4994130;28;20049;-65
2022/07/29 04:37:20;;;;;;;4.05;1.80;;;;;;;;;;4960125;28;20113;-65
2022/07/29 04:39:46;;;;;;;3.65;1.60;;;;;;;;;;4994445;28;20709;-65
2022/07/29 04:42:12;;;;;;;4.30;1.70;;;;;;;;;;4994217;28;20042;-65
2022/07/29 04:44:38;;;;;;;4.10;2.10;;;;;;;;;;4976283;28;20043;-65
2022/07/29 04:47:04;;;;;;;4.40;1.95;;;;;;;;;;4993680;28;20051;-65
2022/07/29 04:49:30;;;;;;;2.58;1.48;;;;;;;;;;4994035;28;20046;-65
2022/07/29 04:51:56;;;;;;;4.95;1.35;;;;;;;;;;4993632;28;20536;-65
2022/07/29 04:54:23;;;;;;;3.25;1.20;;;;;;;;;;4994045;28;20046;-65
2022/07/29 04:56:49;;;;;;;5.80;1.70;;;;;;;;;;4993950;28;20596;-65
2022/07/29 04:59:15;;;;;;;4.97;1.25;;;;;;;;;;4993713;28;20060;-65
2022/07/29 05:01:41;;;;;;;6.80;1.90;;;;;;;;;;4994041;28;20389;-65
2022/07/29 05:04:07;;;;;;;3.75;1.67;;;;;;;;;;4993897;28;20523;-65
2022/07/29 05:06:33;;;;;;;3.03;1.30;;;;;;;;;;4993085;28;20085;-66
2022/07/29 05:08:59;;;;;;;3.85;1.55;;;;;;;;;;4993832;28;20092;-65
2022/07/29 05:11:25;;;;;;;4.47;1.50;;;;;;;;;;4994018;28;20034;-65
2022/07/29 05:13:51;;;;;;;3.55;1.50;;;;;;;;;;4993283;28;20030;-65
2022/07/29 05:16:17;;;;;;;6.93;1.80;;;;;;;;;;4993200;28;20081;-65
2022/07/29 05:18:43;;;;;;;3.33;1.50;;;;;;;;;;4993226;28;20046;-65
2022/07/29 05:21:09;;;;;;;3.97;1.52;;;;;;;;;;4993041;28;20511;-65
2022/07/29 05:23:35;;;;;;;2.92;1.27;;;;;;;;;;4993101;28;20053;-65
2022/07/29 05:26:01;;;;;;;3.40;1.40;;;;;;;;;;4993126;28;20034;-65
2022/07/29 05:28:27;;;;;;;3.58;1.80;;;;;;;;;;4992957;28;20484;-65
2022/07/29 05:30:53;;;;;;;5.05;1.70;;;;;;;;;;4975602;28;20038;-65
2022/07/29 05:33:19;;;;;;;5.50;1.55;;;;;;;;;;4993410;28;20046;-65
2022/07/29 05:35:45;;;;;;;5.65;1.80;;;;;;;;;;4993050;28;20065;-65
2022/07/29 05:38:11;;;;;;;4.97;2.00;;;;;;;;;;4993215;28;20039;-65
2022/07/29 05:40:37;;;;;;;5.95;1.80;;;;;;;;;;4993221;28;20049;-65
2022/07/29 05:43:03;;;;;;;5.38;1.63;;;;;;;;;;4992755;28;20122;-65
2022/07/29 05:45:29;;;;;;;3.90;2.10;;;;;;;;;;4992917;28;20042;-65
2022/07/29 05:47:55;;;;;;;3.97;1.60;;;;;;;;;;4992573;28;20055;-65
2022/07/29 05:50:21;;;;;;;4.30;1.73;;;;;;;;;;4992721;28;20049;-65
2022/07/29 05:52:48;;;;;;;6.20;1.55;;;;;;;;;;4992874;28;20164;-65
2022/07/29 05:55:13;;;;;;;4.22;1.40;;;;;;;;;;4993037;28;20664;-65
2022/07/29 05:57:40;;;;;;;5.32;1.70;;;;;;;;;;4992331;28;20081;-65
2022/07/29 06:00:06;;;;;;;5.25;1.75;;;;;;;;;;4992370;28;20065;-65
2022/07/29 06:02:32;;;;;;;4.13;1.70;;;;;;;;;;4992344;28;20038;-65
2022/07/29 06:04:58;;;;;;;5.95;1.77;;;;;;;;;;4991931;28;20097;-65
2022/07/29 06:07:24;;;;;;;5.40;2.05;;;;;;;;;;4992502;28;20042;-65
2022/07/29 06:09:50;;;;;;;4.18;1.45;;;;;;;;;;4992500;28;20041;-65
2022/07/29 06:12:17;;;;;;;3.85;2.42;;;;;;;;;;4992049;28;20069;-66
2022/07/29 06:14:43;;;;;;;4.28;1.60;;;;;;;;;;4992582;28;20581;-66
2022/07/29 06:17:11;;;;;;;6.20;1.95;;;;;;;;;;4991896;28;20125;-66
2022/07/29 06:19:37;;;;;;;6.55;1.90;;;;;;;;;;4991644;28;20077;-66
2022/07/29 06:22:03;;;;;;;5.95;1.98;;;;;;;;;;5007063;28;20125;-65
2022/07/29 06:24:29;;;;;;;5.82;1.73;;;;;;;;;;4994512;28;20064;-64
2022/07/29 06:26:55;;;;;;;7.00;2.08;;;;;;;;;;4991679;28;20034;-64
2022/07/29 06:29:21;;;;;;;4.07;1.90;;;;;;;;;;4991631;28;20069;-65
2022/07/29 06:31:47;;;;;;;5.82;2.20;;;;;;;;;;4991089;28;20481;-65
2022/07/29 06:34:14;;;;;;;5.13;1.98;;;;;;;;;;4991554;28;20045;-64
2022/07/29 06:36:40;;;;;;;1.95;1.40;;;;;;;;;;4990864;28;20050;-65
2022/07/29 06:39:09;;;;;;;5.30;1.70;;;;;;;;;;4991740;28;20061;-65
2022/07/29 06:41:35;;;;;;;3.13;1.70;;;;;;;;;;4991835;28;20038;-65
2022/07/29 06:44:01;;;;;;;4.82;1.90;;;;;;;;;;4978019;28;20545;-63
2022/07/29 06:46:27;;;;;;;4.90;2.20;;;;;;;;;;5011124;28;20132;-64
2022/07/29 06:48:54;;;;;;;6.88;2.22;;;;;;;;;;4991673;28;20125;-64
2022/07/29 06:51:20;;;;;;;4.93;1.95;;;;;;;;;;4992878;28;20050;-63
2022/07/29 06:53:46;;;;;;;4.47;1.83;;;;;;;;;;4991527;28;20064;-65
2022/07/29 06:56:13;;;;;;;5.10;2.08;;;;;;;;;;4991363;28;20042;-64
2022/07/29 06:58:39;;;;;;;6.28;2.10;;;;;;;;;;4990359;28;20125;-64
2022/07/29 07:01:06;;;;;;;5.30;2.00;;;;;;;;;;4991460;28;20042;-64
2022/07/29 07:03:32;;;;;;;4.53;1.75;;;;;;;;;;4991789;28;20072;-63
2022/07/29 07:05:58;;;;;;;4.80;1.50;;;;;;;;;;4990894;28;20038;-63
2022/07/29 07:08:24;;;;;;;4.65;1.92;;;;;;;;;;4991134;28;20077;-63
2022/07/29 07:10:51;;;;;;;8.77;2.15;;;;;;;;;;4991657;28;20465;-63
2022/07/29 07:13:17;;;;;;;6.40;1.90;;;;;;;;;;4991211;28;20046;-62
2022/07/29 07:15:44;;;;;;;3.85;1.77;;;;;;;;;;4991326;28;20045;-66
2022/07/29 07:18:10;;;;;;;3.85;1.50;;;;;;;;;;4991559;28;20384;-65
2022/07/29 07:20:36;;;;;;;3.22;2.03;;;;;;;;;;4990898;28;20042;-65
2022/07/29 07:23:03;;;;;;;6.05;1.77;;;;;;;;;;4991587;28;20397;-66
2022/07/29 07:25:29;;;;;;;4.35;1.92;;;;;;;;;;4991567;28;20104;-66
2022/07/29 07:27:55;;;;;;;9.32;2.15;;;;;;;;;;4990740;28;20046;-65
2022/07/29 07:30:21;;;;;;;4.05;1.60;;;;;;;;;;4991505;28;20038;-66
2022/07/29 07:32:47;;;;;;;11.38;1.65;;;;;;;;;;4991225;28;20401;-65
2022/07/29 07:35:13;;;;;;;6.18;2.30;;;;;;;;;;4990787;28;20042;-64
2022/07/29 07:37:40;;;;;;;5.75;1.77;;;;;;;;;;4991098;28;20066;-64
2022/07/29 07:40:07;;;;;;;3.50;1.75;;;;;;;;;;4990877;28;20049;-64
2022/07/29 07:42:33;;;;;;;3.97;1.65;;;;;;;;;;4992159;28;20547;-65
2022/07/29 07:44:59;;;;;;;2.67;1.70;;;;;;;;;;4994234;28;20543;-65
2022/07/29 07:47:25;;;;;;;3.80;2.22;;;;;;;;;;4994141;28;20082;-65
2022/07/29 07:49:51;;;;;;;14.32;2.10;;;;;;;;;;4994082;28;20038;-64
2022/07/29 07:52:18;;;;;;;3.90;2.35;;;;;;;;;;5002980;28;20089;-64
2022/07/29 07:54:44;;;;;;;7.40;1.90;;;;;;;;;;4993923;28;20046;-65
2022/07/29 07:57:10;;;;;;;3.75;1.83;;;;;;;;;;4993693;28;20042;-64
2022/07/29 07:59:37;;;;;;;5.40;2.30;;;;;;;;;;4994404;28;20050;-64
2022/07/29 08:02:03;;;;;;;5.53;1.95;;;;;;;;;;4994511;28;20038;-64
2022/07/29 08:04:29;;;;;;;4.32;1.60;;;;;;;;;;4993732;28;20551;-65
2022/07/29 08:06:55;;;;;;;4.75;2.08;;;;;;;;;;4994538;28;20117;-64
2022/07/29 08:09:22;;;;;;;4.28;1.92;;;;;;;;;;4994423;28;20034;-64
2022/07/29 08:11:48;;;;;;;6.03;2.40;;;;;;;;;;4993834;28;20046;-65
2022/07/29 08:14:14;;;;;;;4.85;2.00;;;;;;;;;;4973901;28;20089;-63
2022/07/29 08:16:41;;;;;;;4.65;2.00;;;;;;;;;;4989588;28;20088;-63
2022/07/29 08:19:07;;;;;;;3.10;1.85;;;;;;;;;;4993731;28;20042;-63
2022/07/29 08:21:33;;;;;;;4.60;1.73;;;;;;;;;;4994253;28;20142;-64
2022/07/29 08:26:44;;;;;;;6.40;1.60;;;;;;;;;;4993477;28;20569;-64
2022/07/29 08:29:11;;;;;;;4.93;1.52;;;;;;;;;;4993726;28;20045;-64
2022/07/29 08:31:37;;;;;;;4.45;1.83;;;;;;;;;;4994112;28;20046;-64
2022/07/29 08:34:04;;;;;;;4.28;2.08;;;;;;;;;;4993254;28;20034;-65
2022/07/29 08:36:30;;;;;;;5.13;2.15;;;;;;;;;;4994146;28;20038;-66
2022/07/29 08:38:56;;;;;;;4.88;1.70;;;;;;;;;;4976488;28;20050;-66
2022/07/29 08:41:23;;;;;;;4.53;1.70;;;;;;;;;;4993481;28;20038;-66
2022/07/29 08:43:50;;;;;;;4.85;1.80;;;;;;;;;;4993544;28;20050;-65
2022/07/29 08:46:16;;;;;;;4.78;1.65;;;;;;;;;;4993269;28;20054;-63
2022/07/29 08:48:43;;;;;;;3.83;1.88;;;;;;;;;;4993217;28;20046;-63
2022/07/29 08:51:13;;;;;;;3.25;1.75;;;;;;;;;;4993030;28;20095;-64
2022/07/29 08:53:42;;;;;;;6.00;1.48;;;;;;;;;;4993569;28;20207;-64
2022/07/29 08:56:11;;;;;;;6.38;2.20;;;;;;;;;;4992954;28;20057;-64
2022/07/29 08:58:37;;;;;;;4.13;1.98;;;;;;;;;;4993689;28;20369;-62
2022/07/29 09:01:04;;;;;;;6.00;1.80;;;;;;;;;;5010257;28;20045;-63
2022/07/29 09:03:34;;;;;;;6.25;2.20;;;;;;;;;;4991772;28;20612;-64
2022/07/29 09:06:01;;;;;;;3.40;1.92;;;;;;;;;;4994196;28;20127;-63
2022/07/29 09:08:28;;;;;;;5.97;2.05;;;;;;;;;;5004678;28;20698;-65
2022/07/29 09:10:55;;;;;;;5.70;2.15;;;;;;;;;;4998532;28;20061;-64
2022/07/29 09:13:22;;;;;;;6.38;2.25;;;;;;;;;;5007354;28;20556;-64
2022/07/29 09:15:48;;;;;;;5.25;2.13;;;;;;;;;;5000697;28;20050;-63
2022/07/29 09:18:35;;;;;;;6.00;2.47;;;;;;;;;;4991185;28;20050;-64
2022/07/29 09:24:02;;;;;;;7.15;2.60;;;;;;;;;;4998504;28;20041;-65
2022/07/29 09:26:28;;;;;;;;;;;;;;;;;;4990350;28;20089;-64
2022/07/29 09:28:54;;;;;;;6.97;2.85;;;;;;;;;;4992707;28;20356;-65
2022/07/29 09:31:26;;;;;;;5.30;2.25;;;;;;;;;;4998620;28;20366;-65
2022/07/29 09:33:52;;;;;;;5.95;2.40;;;;;;;;;;4992895;28;20119;-65
2022/07/29 09:36:19;;;;;;;4.00;2.15;;;;;;;;;;4989858;28;20086;-64
2022/07/29 09:38:57;;;;;;;7.68;2.50;;;;;;;;;;4989583;28;20035;-65
2022/07/29 09:41:23;;;;;;;9.02;2.65;;;;;;;;;;4987042;28;20057;-67
2022/07/29 09:43:59;;;;;;;4.10;2.55;;;;;;;;;;5002517;28;20120;-65
2022/07/29 09:46:26;;;;;;;4.35;2.10;;;;;;;;;;4989354;28;20054;-65
2022/07/29 09:49:09;;;;;;;5.35;2.30;;;;;;;;;;4977014;28;20450;-63
2022/07/29 09:51:35;;;;;;;5.93;2.35;;;;;;;;;;4990246;28;20704;-65
2022/07/29 09:54:03;;;;;;;7.97;2.53;;;;;;;;;;4993608;28;20038;-65
2022/07/29 09:56:42;;;;;;;5.35;2.38;;;;;;;;;;4990177;28;20125;-65
2022/07/29 09:59:08;;;;;;;6.45;2.60;;;;;;;;;;4983294;28;20065;-65
2022/07/29 10:01:35;;;;;;;4.65;2.55;;;;;;;;;;4996720;28;20787;-65
2022/07/29 10:04:02;;;;;;;7.25;2.70;;;;;;;;;;4989577;28;20477;-65
2022/07/29 10:06:28;;;;;;;5.07;2.42;;;;;;;;;;4989276;28;20038;-66
2022/07/29 10:08:54;;;;;;;4.50;3.00;;;;;;;;;;4989452;28;20038;-65
2022/07/29 10:11:20;;;;;;;6.25;2.88;;;;;;;;;;4991809;28;20492;-64
2022/07/29 10:13:48;;;;;;;6.10;2.90;;;;;;;;;;4990696;28;20505;-64
2022/07/29 10:16:14;;;;;;;3.60;2.42;;;;;;;;;;4997140;28;20042;-65
2022/07/29 10:18:41;;;;;;;8.40;2.88;;;;;;;;;;4971407;28;20630;-65
2022/07/29 10:21:07;;;;;;;4.32;2.63;;;;;;;;;;4993683;28;20066;-66
2022/07/29 10:23:34;;;;;;;8.02;2.88;;;;;;;;;;4990435;28;20093;-64
2022/07/29 10:26:00;;;;;;;3.47;2.08;;;;;;;;;;4991422;28;20041;-64
2022/07/29 10:28:26;;;;;;;8.90;2.28;;;;;;;;;;5000033;28;20043;-65
2022/07/29 10:30:59;;;;;;;6.50;2.15;;;;;;;;;;4990481;28;20388;-65
2022/07/29 10:33:28;;;;;;;6.72;2.30;;;;;;;;;;4986531;28;20093;-65
2022/07/29 10:35:54;;;;;;;3.15;2.15;;;;;;;;;;4988216;28;20034;-64
2022/07/29 10:38:29;;;;;;;5.85;2.33;;;;;;;;;;5006977;28;20096;-64
2022/07/29 10:41:28;;;;;;;7.63;2.33;;;;;;;;;;4992488;28;20532;-64
2022/07/29 10:43:59;;;;;;;6.13;2.60;;;;;;;;;;4991183;28;20395;-64
2022/07/29 10:46:26;;;;;;;8.50;2.42;;;;;;;;;;4990218;28;20089;-64
2022/07/29 10:49:06;;;;;;;5.97;2.10;;;;;;;;;;4990499;28;20504;-64
2022/07/29 10:51:51;;;;;;;7.28;2.25;;;;;;;;;;4994440;28;20038;-64
2022/07/29 10:54:17;;;;;;;7.63;3.03;;;;;;;;;;4991001;28;20393;-64
2022/07/29 10:56:43;;;;;;;4.88;2.15;;;;;;;;;;4990916;28;20053;-64
2022/07/29 10:59:22;;;;;;;6.60;2.20;;;;;;;;;;4989942;28;20054;-64
2022/07/29 11:01:49;;;;;;;6.45;2.33;;;;;;;;;;4991014;28;20042;-64
2022/07/29 11:04:16;;;;;;;7.30;1.98;;;;;;;;;;4991170;28;20066;-64
2022/07/29 11:07:02;;;;;;;8.95;2.03;;;;;;;;;;4990907;28;20057;-65
2022/07/29 11:09:30;;;;;;;4.15;2.22;;;;;;;;;;4989621;28;20098;-64
2022/07/29 11:11:56;;;;;;;3.17;1.83;;;;;;;;;;4991125;28;20038;-64
2022/07/29 11:14:48;;;;;;;4.65;2.28;;;;;;;;;;4985146;28;20065;-64
2022/07/29 11:17:14;;;;;;;7.90;2.63;;;;;;;;;;4971642;28;20050;-66
2022/07/29 11:19:42;;;;;;;5.68;2.40;;;;;;;;;;4990652;28;20072;-66
2022/07/29 11:22:09;;;;;;;6.40;2.38;;;;;;;;;;5004964;28;20045;-66
2022/07/29 11:24:35;;;;;;;5.43;2.60;;;;;;;;;;4992610;28;20527;-67
2022/07/29 11:27:12;;;;;;;6.50;2.40;;;;;;;;;;4995916;28;20045;-66
2022/07/29 11:29:50;;;;;;;3.90;1.75;;;;;;;;;;4994508;28;20054;-67
2022/07/29 11:32:19;;;;;;;6.22;1.95;;;;;;;;;;4994488;28;20068;-66
2022/07/29 11:34:45;;;;;;;6.70;2.22;;;;;;;;;;4994178;28;20066;-66
2022/07/29 11:37:15;;;;;;;8.32;2.20;;;;;;;;;;4999949;28;20053;-67
2022/07/29 11:39:41;;;;;;;6.57;2.00;;;;;;;;;;4976739;28;20042;-68
2022/07/29 11:42:19;;;;;;;10.88;2.50;;;;;;;;;;5006762;28;20088;-68
2022/07/29 11:45:01;;;;;;;5.63;2.03;;;;;;;;;;4996565;28;20073;-67
2022/07/29 11:47:28;;;;;;;6.35;2.28;;;;;;;;;;4993215;28;20069;-65
2022/07/29 11:49:56;;;;;;;7.78;1.95;;;;;;;;;;4994191;28;20042;-64
2022/07/29 11:52:23;;;;;;;5.28;2.20;;;;;;;;;;4991831;28;20039;-63
2022/07/29 11:54:49;;;;;;;4.80;2.10;;;;;;;;;;4992593;28;20053;-67
2022/07/29 11:57:19;;;;;;;5.93;2.47;;;;;;;;;;4994138;28;20042;-65
2022/07/29 11:59:45;;;;;;;5.57;2.00;;;;;;;;;;4989673;28;20409;-67
2022/07/29 12:02:12;;;;;;;6.45;2.42;;;;;;;;;;4977996;28;20038;-68
2022/07/29 12:04:55;;;;;;;7.32;2.53;;;;;;;;;;4995571;28;20097;-66
2022/07/29 12:07:32;;;;;;;3.92;2.55;;;;;;;;;;4994959;28;20034;-65
2022/07/29 12:09:58;;;;;;;6.45;2.70;;;;;;;;;;4992782;28;20529;-65
2022/07/29 12:12:24;;;;;;;6.25;2.42;;;;;;;;;;4991041;28;20034;-66
2022/07/29 12:14:50;;;;;;;7.18;2.20;;;;;;;;;;4993378;28;20144;-65
2022/07/29 12:17:26;;;;;;;5.10;1.90;;;;;;;;;;4993052;28;20042;-65
2022/07/29 12:19:52;;;;;;;6.28;2.53;;;;;;;;;;4992616;28;20069;-66
2022/07/29 12:22:28;;;;;;;7.45;2.40;;;;;;;;;;4992886;28;20483;-67
2022/07/29 12:24:56;;;;;;;8.30;2.30;;;;;;;;;;4993312;28;20041;-67
2022/07/29 12:27:23;;;;;;;7.65;2.42;;;;;;;;;;4993873;28;20042;-66
2022/07/29 12:30:00;;;;;;;4.80;2.13;;;;;;;;;;5000484;28;20176;-67
2022/07/29 12:32:36;;;;;;;4.28;2.00;;;;;;;;;;5000097;28;20049;-67
2022/07/29 12:35:21;;;;;;;4.97;1.95;;;;;;;;;;4990751;28;20038;-66
2022/07/29 12:37:51;;;;;;;4.22;1.73;;;;;;;;;;4989096;28;20121;-65
2022/07/29 12:40:17;;;;;;;6.10;2.08;;;;;;;;;;4990765;28;20054;-68
2022/07/29 12:43:02;;;;;;;6.30;2.50;;;;;;;;;;4995192;28;20049;-65
2022/07/29 12:45:29;;;;;;;5.95;2.35;;;;;;;;;;4993615;28;20081;-66
2022/07/29 12:47:55;;;;;;;6.43;2.40;;;;;;;;;;4995804;28;20065;-65
2022/07/29 12:50:21;;;;;;;4.22;1.80;;;;;;;;;;4994005;28;20038;-66
2022/07/29 12:52:47;;;;;;;7.22;2.10;;;;;;;;;;4993712;28;20065;-66
2022/07/29 12:55:14;;;;;;;6.13;1.95;;;;;;;;;;4991657;28;20038;-66
2022/07/29 12:57:53;;;;;;;3.42;2.10;;;;;;;;;;4999196;28;20049;-65
2022/07/29 13:00:23;;;;;;;5.53;1.83;;;;;;;;;;4982255;28;20054;-65
2022/07/29 13:03:00;;;;;;;6.60;2.10;;;;;;;;;;4991961;28;20042;-66
2022/07/29 13:05:59;;;;;;;6.00;1.90;;;;;;;;;;4973673;28;20042;-67
2022/07/29 13:08:25;;;;;;;4.15;2.17;;;;;;;;;;4971170;28;20113;-67
2022/07/29 13:10:51;;;;;;;9.15;2.00;;;;;;;;;;4991714;28;20050;-66
2022/07/29 13:13:17;;;;;;;8.18;1.80;;;;;;;;;;4993306;28;20077;-66
2022/07/29 13:15:44;;;;;;;6.18;2.10;;;;;;;;;;4994087;28;20069;-65
2022/07/29 13:18:29;;;;;;;7.32;1.88;;;;;;;;;;4974823;28;20034;-66
2022/07/29 13:20:55;;;;;;;4.30;1.80;;;;;;;;;;4994210;28;20038;-67
2022/07/29 13:23:22;;;;;;;6.22;2.25;;;;;;;;;;4987284;28;20038;-66
2022/07/29 13:25:48;;;;;;;5.93;2.20;;;;;;;;;;4993699;28;20030;-67
2022/07/29 13:28:14;;;;;;;4.65;1.92;;;;;;;;;;4989746;28;20688;-69
2022/07/29 13:30:43;;;;;;;7.20;2.30;;;;;;;;;;4992406;28;20140;-66
2022/07/29 13:33:09;;;;;;;4.38;1.90;;;;;;;;;;4989734;28;20053;-65
2022/07/29 13:35:35;;;;;;;5.90;1.45;;;;;;;;;;4992192;28;20038;-65
2022/07/29 13:38:01;;;;;;;5.13;1.90;;;;;;;;;;4990925;28;20049;-67
2022/07/29 13:40:28;;;;;;;6.03;2.10;;;;;;;;;;4988005;28;20042;-65
2022/07/29 13:42:55;;;;;;;6.55;2.17;;;;;;;;;;4980499;28;20117;-67
2022/07/29 13:45:21;;;;;;;5.68;2.10;;;;;;;;;;4988571;28;20042;-65
2022/07/29 13:47:47;;;;;;;4.28;1.70;;;;;;;;;;4991422;28;20065;-65
2022/07/29 13:50:13;;;;;;;4.53;1.70;;;;;;;;;;4990685;28;20049;-65
2022/07/29 13:52:39;;;;;;;3.17;1.40;;;;;;;;;;4981716;28;20065;-65
2022/07/29 13:55:05;;;;;;;6.10;1.60;;;;;;;;;;4987402;28;20068;-66
2022/07/29 13:57:31;;;;;;;5.75;1.50;;;;;;;;;;4984978;28;20125;-66
2022/07/29 13:59:57;;;;;;;6.50;1.70;;;;;;;;;;4982132;28;20038;-68
2022/07/29 14:02:24;;;;;;;9.80;2.00;;;;;;;;;;4986921;28;20578;-66
2022/07/29 14:04:50;;;;;;;6.70;2.17;;;;;;;;;;4987979;28;20059;-68
2022/07/29 14:07:16;;;;;;;3.28;1.70;;;;;;;;;;4991858;28;20455;-67
2022/07/29 14:09:42;;;;;;;4.13;1.63;;;;;;;;;;4991584;28;20062;-67
2022/07/29 14:12:08;;;;;;;5.85;1.98;;;;;;;;;;4991980;28;20081;-66
2022/07/29 14:14:36;;;;;;;4.78;1.55;;;;;;;;;;4991592;28;20042;-66
2022/07/29 14:17:02;;;;;;;5.05;1.70;;;;;;;;;;4992984;28;20042;-68
2022/07/29 14:19:29;;;;;;;3.15;1.55;;;;;;;;;;4974858;28;20109;-68
2022/07/29 14:21:55;;;;;;;3.67;1.38;;;;;;;;;;4991330;28;20050;-68
2022/07/29 14:24:21;;;;;;;7.40;2.00;;;;;;;;;;4991820;28;20385;-67
2022/07/29 14:26:47;;;;;;;6.68;1.75;;;;;;;;;;4991795;28;20496;-66
2022/07/29 14:29:13;;;;;;;5.70;1.80;;;;;;;;;;4991632;28;20077;-69
2022/07/29 14:31:39;;;;;;;5.20;1.70;;;;;;;;;;4991973;28;20049;-67
2022/07/29 14:34:05;;;;;;;4.18;1.80;;;;;;;;;;4991813;28;20038;-68
2022/07/29 14:36:31;;;;;;;6.32;1.85;;;;;;;;;;4991141;28;20092;-66
2022/07/29 14:38:57;;;;;;;5.60;1.70;;;;;;;;;;4991747;28;20042;-66
2022/07/29 14:41:23;;;;;;;5.05;1.80;;;;;;;;;;4991719;28;20045;-68
2022/07/29 14:43:51;;;;;;;3.53;1.58;;;;;;;;;;4991766;28;20042;-67
2022/07/29 14:46:18;;;;;;;4.72;1.50;;;;;;;;;;4991748;28;20042;-66
2022/07/29 14:48:44;;;;;;;6.78;1.80;;;;;;;;;;4991497;28;20557;-67
2022/07/29 14:51:10;;;;;;;4.75;1.73;;;;;;;;;;4991255;28;20047;-67
2022/07/29 14:53:36;;;;;;;4.35;2.03;;;;;;;;;;4973790;28;20043;-66
2022/07/29 14:56:02;;;;;;;4.85;1.95;;;;;;;;;;4992024;28;20066;-66